createdAt,value
2022-11-22T00:01:39.151Z,84.89
2022-11-22T00:07:10.872Z,84.86
2022-11-22T00:12:42.585Z,85.02
2022-11-22T00:18:14.271Z,84.91
2022-11-22T00:23:46.057Z,84.83
2022-11-22T00:29:18.018Z,84.62
2022-11-22T00:34:49.684Z,84.61
2022-11-22T00:40:21.423Z,84.48
2022-11-22T00:45:52.868Z,84.46
2022-11-22T00:51:24.617Z,84.52
2022-11-22T00:56:56.386Z,84.55
2022-11-22T01:02:28.115Z,84.60
2022-11-22T01:07:59.954Z,84.90
2022-11-22T01:13:31.710Z,85.22
2022-11-22T01:19:03.444Z,85.88
2022-11-22T01:24:35.353Z,86.53
2022-11-22T01:30:07.433Z,86.61
2022-11-22T01:35:38.941Z,87.06
2022-11-22T01:41:10.716Z,86.90
2022-11-22T01:46:42.556Z,87.22
2022-11-22T01:52:14.290Z,87.53
2022-11-22T01:57:46.134Z,88.11
2022-11-22T02:03:17.919Z,87.98
2022-11-22T02:08:49.758Z,88.05
2022-11-22T02:14:21.507Z,88.13
2022-11-22T02:19:53.169Z,88.11
2022-11-22T02:25:24.924Z,88.07
2022-11-22T02:30:57.051Z,86.96
2022-11-22T02:36:28.713Z,85.43
2022-11-22T02:42:00.483Z,86.54
2022-11-22T02:47:32.253Z,87.32
2022-11-22T02:53:04.043Z,88.54
2022-11-22T02:58:35.792Z,88.63
2022-11-22T03:04:07.579Z,88.85
2022-11-22T03:09:39.546Z,89.27
2022-11-22T03:15:11.173Z,89.29
2022-11-22T03:20:43.010Z,89.62
2022-11-22T03:26:14.995Z,89.58
2022-11-22T03:31:46.566Z,89.43
2022-11-22T03:37:18.729Z,89.57
2022-11-22T03:42:51.101Z,89.90
2022-11-22T03:48:22.922Z,90.02
2022-11-22T03:53:54.933Z,90.22
2022-11-22T03:59:26.899Z,90.08
2022-11-22T04:04:59.131Z,90.17
2022-11-22T04:10:31.086Z,90.54
2022-11-22T04:16:03.021Z,90.93
2022-11-22T04:21:34.890Z,90.65
2022-11-22T04:27:07.004Z,90.71
2022-11-22T04:32:38.808Z,90.60
2022-11-22T04:38:10.616Z,90.40
2022-11-22T04:43:42.445Z,90.78
2022-11-22T04:49:14.112Z,90.76
2022-11-22T04:54:46.024Z,90.49
2022-11-22T05:00:18.199Z,90.35
2022-11-22T05:05:49.885Z,90.63
2022-11-22T05:11:21.525Z,90.72
2022-11-22T05:13:33.427Z,90.69
2022-11-22T05:19:05.306Z,90.79
2022-11-22T05:24:36.955Z,90.63
2022-11-22T05:30:08.813Z,90.58
2022-11-22T05:35:40.563Z,90.61
2022-11-22T05:41:12.333Z,90.54
2022-11-22T05:46:44.072Z,90.55
2022-11-22T05:52:15.914Z,90.54
2022-11-22T05:57:48.166Z,90.51
2022-11-22T06:03:19.685Z,90.39
2022-11-22T06:08:51.513Z,90.62
2022-11-22T06:14:23.579Z,90.72
2022-11-22T06:19:55.186Z,90.83
2022-11-22T06:25:26.908Z,90.94
2022-11-22T06:30:58.291Z,90.76
2022-11-22T06:36:30.284Z,91.11
2022-11-22T06:42:01.958Z,91.18
2022-11-22T06:47:33.695Z,91.17
2022-11-22T06:53:05.277Z,91.42
2022-11-22T06:58:37.064Z,91.62
2022-11-22T07:04:08.892Z,91.13
2022-11-22T07:09:40.631Z,91.76
2022-11-22T07:15:12.613Z,91.80
2022-11-22T07:20:50.411Z,91.88
2022-11-22T07:26:22.267Z,91.61
2022-11-22T07:31:53.926Z,91.53
2022-11-22T07:37:25.810Z,91.58
2022-11-22T07:42:58.769Z,91.52
2022-11-22T07:48:29.297Z,91.94
2022-11-22T07:54:01.841Z,91.88
2022-11-22T07:59:33.553Z,91.84
2022-11-22T08:05:05.425Z,91.86
2022-11-22T08:10:37.712Z,92.10
2022-11-22T08:16:09.356Z,92.00
2022-11-22T08:21:41.107Z,92.06
2022-11-22T08:27:13.003Z,92.00
2022-11-22T08:32:44.918Z,91.69
2022-11-22T08:38:16.809Z,91.82
2022-11-22T08:43:48.819Z,91.76
2022-11-22T08:49:21.125Z,91.82
2022-11-22T08:54:53.122Z,91.75
2022-11-22T09:00:30.127Z,91.78
2022-11-22T09:11:28.700Z,92.08
2022-11-22T09:17:00.676Z,91.92
2022-11-22T09:24:45.206Z,91.28
2022-11-22T09:30:17.055Z,90.86
2022-11-22T09:35:48.942Z,90.39
2022-11-22T09:43:41.932Z,90.00
2022-11-22T09:49:14.065Z,89.71
2022-11-22T09:54:46.420Z,90.01
2022-11-22T10:02:58.817Z,89.99
2022-11-22T10:08:10.858Z,89.98
2022-11-22T10:13:42.128Z,89.62
2022-11-22T10:19:13.844Z,89.27
2022-11-22T10:24:45.812Z,88.63
2022-11-22T10:30:17.790Z,88.40
2022-11-22T10:35:49.547Z,87.91
2022-11-22T10:41:21.253Z,87.56
2022-11-22T10:46:56.694Z,87.43
2022-11-22T10:52:25.568Z,87.26
2022-11-22T10:57:57.196Z,86.76
2022-11-22T11:03:29.255Z,86.08
2022-11-22T11:14:33.216Z,84.08
2022-11-22T11:20:05.095Z,82.77
2022-11-22T11:25:37.366Z,82.04
2022-11-22T11:31:09.619Z,82.41
2022-11-22T11:36:41.917Z,82.51
2022-11-22T11:42:13.795Z,82.21
2022-11-22T11:47:45.799Z,82.94
2022-11-22T11:53:17.701Z,83.71
2022-11-22T11:58:49.357Z,83.82
2022-11-22T12:04:21.081Z,83.50
2022-11-22T12:09:53.168Z,82.62
2022-11-22T12:15:24.830Z,82.12
2022-11-22T12:20:56.502Z,82.31
2022-11-22T12:26:28.477Z,82.48
2022-11-22T12:32:00.330Z,82.58
2022-11-22T12:37:32.159Z,83.10
2022-11-22T12:43:04.075Z,83.49
2022-11-22T12:48:35.734Z,83.94
2022-11-22T12:54:07.442Z,84.52
2022-11-22T12:59:39.339Z,85.04
2022-11-22T13:05:11.084Z,84.81
2022-11-22T13:10:42.405Z,84.45
2022-11-22T13:16:14.219Z,85.05
2022-11-22T13:21:46.097Z,85.24
2022-11-22T13:27:18.220Z,85.54
2022-11-22T13:32:49.988Z,85.85
2022-11-22T13:38:21.486Z,85.73
2022-11-22T13:43:53.297Z,85.39
2022-11-22T13:49:25.130Z,85.00
2022-11-22T13:55:03.184Z,84.71
2022-11-22T14:00:34.990Z,84.35
2022-11-22T14:06:06.891Z,84.02
2022-11-22T14:11:40.699Z,83.68
2022-11-22T14:17:10.409Z,83.29
2022-11-22T14:22:42.512Z,82.98
2022-11-22T14:28:14.541Z,83.11
2022-11-22T14:33:46.385Z,82.73
2022-11-22T14:39:18.148Z,82.75
2022-11-22T14:44:49.824Z,82.97
2022-11-22T14:50:21.662Z,83.45
2022-11-22T14:55:53.293Z,83.59
2022-11-22T15:01:25.673Z,83.93
2022-11-22T15:09:16.478Z,84.42
2022-11-22T15:12:29.988Z,83.23
2022-11-22T16:02:17.766Z,83.53
2022-11-22T16:07:49.599Z,83.71
2022-11-22T16:13:21.270Z,84.03
2022-11-22T16:18:53.045Z,84.13
2022-11-22T16:24:24.737Z,84.15
2022-11-22T16:29:56.623Z,84.47
2022-11-22T16:35:29.762Z,84.69
2022-11-22T16:41:00.229Z,84.80
2022-11-22T16:46:32.062Z,85.00
2022-11-22T16:52:04.187Z,85.08
2022-11-22T16:57:36.562Z,85.19
2022-11-22T17:03:08.409Z,85.35
2022-11-22T17:10:52.494Z,85.63
2022-11-22T17:16:24.600Z,85.76
2022-11-22T17:21:56.350Z,86.21
2022-11-22T17:27:28.400Z,86.27
2022-11-22T17:33:00.146Z,86.13
2022-11-22T17:38:31.836Z,86.23
2022-11-22T17:44:03.859Z,86.23
2022-11-22T17:49:35.785Z,86.25
2022-11-22T17:55:13.061Z,86.30
2022-11-22T18:00:39.591Z,86.30
2022-11-22T18:06:11.406Z,86.22
2022-11-22T18:11:43.374Z,86.03
2022-11-22T18:17:15.860Z,85.79
2022-11-22T18:22:47.863Z,85.55
2022-11-22T18:28:19.914Z,85.40
2022-11-22T18:33:51.767Z,85.30
2022-11-22T18:39:23.667Z,85.21
2022-11-22T18:44:55.659Z,85.18
2022-11-22T18:50:27.450Z,85.08
2022-11-22T18:55:59.155Z,84.79
2022-11-22T19:01:31.294Z,84.56
2022-11-22T19:07:02.954Z,84.41
2022-11-22T19:12:35.109Z,84.37
2022-11-22T19:18:07.068Z,84.48
2022-11-22T19:23:39.205Z,84.65
2022-11-22T19:29:10.721Z,84.79
2022-11-22T19:34:42.530Z,84.75
2022-11-22T19:40:14.290Z,84.83
2022-11-22T19:45:46.205Z,84.93
2022-11-22T19:51:18.048Z,84.99
2022-11-22T19:56:50.317Z,85.03
2022-11-22T20:02:21.987Z,85.11
2022-11-22T20:07:53.923Z,85.21
2022-11-22T20:13:26.066Z,85.23
2022-11-22T20:18:57.528Z,85.38
2022-11-22T20:24:29.742Z,85.60
2022-11-22T20:30:01.571Z,85.73
2022-11-22T20:35:33.637Z,85.85
2022-11-22T20:41:05.562Z,85.95
2022-11-22T20:46:37.644Z,86.03
2022-11-22T20:52:09.613Z,86.08
2022-11-22T20:57:41.790Z,86.13
2022-11-22T21:03:13.689Z,86.18
2022-11-22T21:08:45.412Z,86.15
2022-11-22T21:14:17.690Z,86.35
2022-11-22T21:19:49.683Z,86.41
2022-11-22T21:25:21.676Z,86.36
2022-11-22T21:30:53.955Z,86.26
2022-11-22T21:36:25.981Z,86.50
2022-11-22T21:41:57.970Z,86.61
2022-11-22T21:47:30.145Z,86.76
2022-11-22T21:53:02.214Z,86.72
2022-11-22T21:58:34.515Z,86.70
2022-11-22T22:04:06.639Z,86.83
2022-11-22T22:09:39.148Z,86.98
2022-11-22T22:15:11.032Z,87.07
2022-11-22T22:20:43.253Z,87.22
2022-11-22T22:26:15.233Z,87.20
2022-11-22T22:31:47.244Z,87.05
2022-11-22T22:37:19.550Z,86.86
2022-11-22T22:42:51.613Z,86.94
2022-11-22T22:48:23.431Z,86.91
2022-11-22T22:53:55.365Z,86.91
2022-11-22T22:59:27.683Z,86.83
2022-11-22T23:04:59.957Z,86.83
2022-11-22T23:10:32.054Z,86.74
2022-11-22T23:16:04.111Z,86.66
2022-11-22T23:21:36.204Z,86.67
2022-11-22T23:27:08.490Z,86.80
2022-11-22T23:32:40.773Z,86.89
2022-11-22T23:38:13.127Z,86.97
2022-11-22T23:43:45.031Z,87.32
2022-11-22T23:49:16.966Z,87.30
2022-11-22T23:54:49.216Z,87.48
